Time;durP1;ratioP1;P1;durP2;ratioP2;P2;SDS_P1;SDS_P2;PMS_P1;PMS_P2;Temp;Humidity;BMP_temperature;BMP_pressure;BME280_temperature;BME280_humidity;BME280_pressure;Samples;Min_cycle;Max_cycle;Signal;HPM_P1;HPM_P2
2022/10/13 00:00:47;;;;;;;25.83;12.95;;;;;;;11.10;100.00;102004.75;7376103;19;20478;-75
2022/10/13 00:03:20;;;;;;;24.42;13.23;;;;;;;11.08;100.00;102003.81;7376136;19;20018;-75
2022/10/13 00:05:51;;;;;;;27.23;12.70;;;;;;;11.10;100.00;102007.38;7373942;19;20013;-74
2022/10/13 00:08:25;;;;;;;26.17;13.45;;;;;;;11.08;100.00;102009.94;7368782;19;20328;-73
2022/10/13 00:10:54;;;;;;;27.38;13.57;;;;;;;11.07;100.00;102007.28;7375407;19;20042;-69
2022/10/13 00:13:24;;;;;;;23.08;11.75;;;;;;;11.07;100.00;101999.41;7375068;19;20396;-69
2022/10/13 00:15:54;;;;;;;24.92;12.93;;;;;;;11.06;100.00;101995.00;7374913;19;20010;-70
2022/10/13 00:18:26;;;;;;;23.52;12.57;;;;;;;11.03;100.00;102000.16;7375115;19;20333;-75
2022/10/13 00:20:55;;;;;;;26.65;13.50;;;;;;;11.08;100.00;102004.69;7373493;19;20573;-71
2022/10/13 00:23:25;;;;;;;25.90;12.98;;;;;;;11.03;100.00;101998.44;7376738;19;20034;-71
2022/10/13 00:25:55;;;;;;;25.83;13.55;;;;;;;11.02;100.00;102001.91;7377069;19;20042;-70
2022/10/13 00:28:24;;;;;;;24.23;13.25;;;;;;;11.05;100.00;101995.84;7369221;19;20499;-70
2022/10/13 00:30:54;;;;;;;28.23;13.60;;;;;;;11.07;100.00;101996.78;7373468;19;20035;-71
2022/10/13 00:33:27;;;;;;;28.42;14.15;;;;;;;11.09;100.00;101995.09;7371524;19;20011;-75
2022/10/13 00:35:56;;;;;;;30.67;14.60;;;;;;;11.09;100.00;101995.97;7377183;19;20010;-75
2022/10/13 00:38:26;;;;;;;22.77;12.57;;;;;;;11.09;100.00;101990.72;7374303;19;20014;-75
2022/10/13 00:40:58;;;;;;;27.90;13.18;;;;;;;11.10;100.00;101989.00;7373347;19;20011;-75
2022/10/13 00:43:29;;;;;;;24.15;13.07;;;;;;;11.13;100.00;102002.22;7376911;19;20341;-75
2022/10/13 00:45:59;;;;;;;24.85;12.98;;;;;;;11.11;100.00;101993.41;7369012;19;20026;-75
2022/10/13 00:48:32;;;;;;;29.45;13.57;;;;;;;11.14;100.00;101990.88;7372623;19;20047;-75
2022/10/13 00:51:02;;;;;;;26.40;12.90;;;;;;;11.13;100.00;101991.72;7371078;19;20030;-75
2022/10/13 00:53:35;;;;;;;22.90;13.43;;;;;;;11.16;100.00;101994.44;7364469;19;20011;-75
2022/10/13 00:56:07;;;;;;;28.05;13.82;;;;;;;11.21;100.00;101997.19;7375654;19;20031;-75
2022/10/13 00:58:39;;;;;;;23.83;11.90;;;;;;;11.21;100.00;101994.56;7372030;19;20017;-75
2022/10/13 01:01:09;;;;;;;23.88;13.18;;;;;;;11.23;100.00;101995.50;7376600;19;20482;-70
2022/10/13 01:03:43;;;;;;;26.08;13.70;;;;;;;11.21;100.00;102003.31;7372882;19;20039;-70
2022/10/13 01:06:14;;;;;;;26.52;12.02;;;;;;;11.22;100.00;101997.22;7372607;19;20017;-70
2022/10/13 01:08:49;;;;;;;21.40;12.68;;;;;;;11.25;100.00;101996.44;7368080;19;20321;-70
2022/10/13 01:11:39;;;;;;;25.25;13.00;;;;;;;11.22;100.00;101989.34;7374867;19;20014;-70
2022/10/13 01:14:19;;;;;;;27.50;11.80;;;;;;;11.25;100.00;101975.41;7372539;19;20014;-71
2022/10/13 01:16:59;;;;;;;25.67;12.95;;;;;;;11.25;100.00;101960.56;7374735;19;20578;-71
2022/10/13 01:20:05;;;;;;;22.45;12.10;;;;;;;11.22;100.00;101965.72;7371709;19;20025;-71
2022/10/13 01:22:48;;;;;;;23.02;11.15;;;;;;;11.22;100.00;101965.72;7375543;19;20019;-72
2022/10/13 01:25:35;;;;;;;29.63;13.85;;;;;;;11.21;100.00;101973.56;7366441;19;20507;-70
2022/10/13 01:28:37;;;;;;;23.33;12.25;;;;;;;11.22;100.00;101980.59;7371358;19;20010;-70
2022/10/13 01:31:20;;;;;;;21.52;12.05;;;;;;;11.25;100.00;101986.81;7373942;19;20010;-74
2022/10/13 01:33:59;;;;;;;27.98;13.82;;;;;;;11.28;100.00;101983.38;7373001;19;20361;-74
2022/10/13 01:36:34;;;;;;;24.98;12.93;;;;;;;11.31;100.00;101986.09;7372215;19;20010;-70
2022/10/13 01:39:10;;;;;;;30.52;14.15;;;;;;;11.29;100.00;101991.31;7374677;19;20014;-71
2022/10/13 01:41:43;;;;;;;25.00;14.50;;;;;;;11.30;100.00;101985.22;7371471;19;20049;-70
2022/10/13 01:44:18;;;;;;;30.17;13.85;;;;;;;11.29;100.00;101978.19;7372697;19;20010;-70
2022/10/13 01:46:53;;;;;;;28.17;14.32;;;;;;;11.29;100.00;101980.81;7369252;19;20631;-70
2022/10/13 01:49:27;;;;;;;28.83;13.20;;;;;;;11.27;100.00;101974.63;7373390;19;20007;-70
2022/10/13 01:52:03;;;;;;;23.67;13.07;;;;;;;11.29;100.00;101967.69;7372002;19;20014;-70
2022/10/13 01:54:34;;;;;;;25.67;12.25;;;;;;;11.28;100.00;101938.75;7371720;19;20587;-74
2022/10/13 01:57:03;;;;;;;26.85;13.70;;;;;;;11.34;100.00;101934.56;7373286;19;20014;-73
2022/10/13 01:59:37;;;;;;;26.52;13.35;;;;;;;11.34;100.00;101941.53;7373455;19;20050;-73
2022/10/13 02:02:18;;;;;;;26.15;14.23;;;;;;;11.33;100.00;101940.66;7374252;19;20011;-74
2022/10/13 02:04:58;;;;;;;28.13;14.50;;;;;;;11.35;100.00;101925.81;7373159;19;20007;-73
2022/10/13 02:07:33;;;;;;;30.77;14.10;;;;;;;11.36;100.00;101917.09;7367665;19;20010;-75
2022/10/13 02:10:09;;;;;;;29.17;13.95;;;;;;;11.35;100.00;101928.44;7371649;19;20014;-74
2022/10/13 02:12:44;;;;;;;29.73;15.25;;;;;;;11.34;100.00;101933.66;7367456;19;20384;-74
2022/10/13 02:15:17;;;;;;;28.13;13.75;;;;;;;11.32;100.00;101930.09;7369666;19;21172;-74
2022/10/13 02:17:50;;;;;;;28.10;13.98;;;;;;;11.33;100.00;101939.75;7369260;19;20511;-74
2022/10/13 02:20:21;;;;;;;29.58;14.38;;;;;;;11.35;100.00;101930.19;7371090;19;20030;-74
2022/10/13 02:22:57;;;;;;;28.25;14.52;;;;;;;11.33;100.00;101927.53;7371997;19;20010;-71
2022/10/13 02:25:27;;;;;;;31.33;14.30;;;;;;;11.33;100.00;101917.00;7374051;19;20030;-71
2022/10/13 02:27:59;;;;;;;28.90;14.00;;;;;;;11.28;100.00;101902.88;7355557;19;20010;-71
2022/10/13 02:30:32;;;;;;;34.45;15.30;;;;;;;11.30;100.00;101906.44;7368922;19;20026;-71
2022/10/13 02:33:04;;;;;;;30.90;15.52;;;;;;;11.33;100.00;101918.75;7372772;19;20010;-72
2022/10/13 02:35:34;;;;;;;28.70;17.17;;;;;;;11.35;100.00;101915.31;7369707;19;20110;-71
2022/10/13 02:38:04;;;;;;;26.95;14.85;;;;;;;11.33;100.00;101917.00;7371995;19;20444;-70
2022/10/13 02:40:34;;;;;;;28.00;15.60;;;;;;;11.34;100.00;101913.53;7368022;19;20010;-70
2022/10/13 02:43:04;;;;;;;28.45;14.73;;;;;;;11.32;100.00;101915.22;7372236;19;20002;-71
2022/10/13 02:45:33;;;;;;;29.00;14.43;;;;;;;11.32;100.00;101909.09;7363602;19;20014;-70
2022/10/13 02:48:06;;;;;;;27.52;14.50;;;;;;;11.34;100.00;101908.28;7371236;19;20228;-72
2022/10/13 02:50:36;;;;;;;29.73;16.08;;;;;;;11.43;100.00;101905.91;7369310;19;20010;-72
2022/10/13 02:53:06;;;;;;;26.00;13.98;;;;;;;11.45;100.00;101909.44;7366527;19;20577;-72
2022/10/13 02:55:35;;;;;;;31.48;15.45;;;;;;;11.47;100.00;101905.09;7370600;19;20014;-72
2022/10/13 02:58:05;;;;;;;27.35;14.25;;;;;;;11.55;100.00;101902.69;7368957;19;20038;-72
2022/10/13 03:00:34;;;;;;;28.40;14.68;;;;;;;11.50;100.00;101892.91;7370787;19;20010;-74
2022/10/13 03:03:07;;;;;;;28.35;14.52;;;;;;;11.50;100.00;101892.91;7369295;19;20011;-74
2022/10/13 03:05:37;;;;;;;29.08;13.60;;;;;;;11.46;100.00;101892.81;7363495;19;20450;-74
2022/10/13 03:08:07;;;;;;;25.83;13.43;;;;;;;11.45;100.00;101885.78;7371534;19;20014;-75
2022/10/13 03:10:36;;;;;;;28.98;13.77;;;;;;;11.45;100.00;101885.78;7366169;19;20011;-74
2022/10/13 03:13:06;;;;;;;27.85;14.50;;;;;;;11.41;100.00;101878.72;7370349;19;20006;-74
2022/10/13 03:15:35;;;;;;;26.00;12.88;;;;;;;11.42;100.00;101880.50;7364818;19;20017;-74
2022/10/13 03:18:08;;;;;;;27.10;14.23;;;;;;;11.43;100.00;101879.63;7367023;19;20412;-75
2022/10/13 03:20:37;;;;;;;33.00;14.45;;;;;;;11.46;100.00;101879.69;7366295;19;20018;-74
2022/10/13 03:23:07;;;;;;;28.55;14.48;;;;;;;11.46;100.00;101876.16;7369538;19;20015;-74
2022/10/13 03:25:37;;;;;;;30.17;14.10;;;;;;;11.48;100.00;101867.47;7363259;19;20010;-74
2022/10/13 03:28:07;;;;;;;32.58;15.45;;;;;;;11.51;100.00;101865.78;7369216;19;20022;-74
2022/10/13 03:30:37;;;;;;;29.98;14.27;;;;;;;11.47;100.00;101857.81;7374437;19;20003;-74
2022/10/13 03:33:09;;;;;;;27.98;14.80;;;;;;;11.46;100.00;101850.78;7373239;19;20015;-72
2022/10/13 03:35:39;;;;;;;21.85;13.00;;;;;;;11.44;100.00;101846.34;7374675;19;20106;-72
2022/10/13 03:38:09;;;;;;;26.00;13.45;;;;;;;11.43;100.00;101839.34;7373425;19;20010;-74
2022/10/13 03:40:39;;;;;;;27.92;14.25;;;;;;;11.43;100.00;101819.22;7372777;19;20010;-74
2022/10/13 03:43:09;;;;;;;30.02;14.50;;;;;;;11.42;100.00;101843.72;7370811;19;20487;-74
2022/10/13 03:45:39;;;;;;;26.50;13.98;;;;;;;11.39;100.00;101861.13;7370863;19;20027;-74
2022/10/13 03:48:11;;;;;;;26.38;13.85;;;;;;;11.36;100.00;101868.94;7373519;19;20082;-74
2022/10/13 03:50:40;;;;;;;28.50;14.30;;;;;;;11.43;100.00;101865.63;7368846;19;20047;-74
2022/10/13 03:53:11;;;;;;;28.67;15.50;;;;;;;11.44;100.00;101872.63;7370718;19;20102;-74
2022/10/13 03:55:40;;;;;;;27.38;15.07;;;;;;;11.41;100.00;101864.69;7373239;19;20013;-74
2022/10/13 03:58:10;;;;;;;29.17;16.20;;;;;;;11.40;100.00;101858.53;7374975;19;20015;-74
2022/10/13 04:00:40;;;;;;;29.33;15.55;;;;;;;11.41;100.00;101851.56;7373309;19;20728;-74
2022/10/13 04:03:13;;;;;;;35.85;16.45;;;;;;;11.41;100.00;101865.56;7372937;19;20018;-74
2022/10/13 04:05:43;;;;;;;32.13;16.35;;;;;;;11.46;100.00;101861.28;7368838;19;20015;-74
2022/10/13 04:08:14;;;;;;;32.15;15.15;;;;;;;11.45;100.00;101867.41;7371986;19;20014;-73
2022/10/13 04:10:43;;;;;;;31.17;16.15;;;;;;;11.53;100.00;101856.19;7371161;19;20014;-74
2022/10/13 04:13:13;;;;;;;31.00;16.15;;;;;;;11.49;100.00;101868.38;7373777;19;20014;-75
2022/10/13 04:15:43;;;;;;;32.88;15.15;;;;;;;11.50;100.00;101869.25;7368529;19;20010;-74
2022/10/13 04:18:16;;;;;;;36.45;15.05;;;;;;;11.51;100.00;101868.41;7368364;19;20010;-74
2022/10/13 04:20:46;;;;;;;28.60;15.05;;;;;;;11.45;100.00;101872.66;7367927;19;20010;-71
2022/10/13 04:23:15;;;;;;;29.65;14.90;;;;;;;11.46;100.00;101871.81;7368179;19;20468;-71
2022/10/13 04:25:45;;;;;;;33.15;15.55;;;;;;;11.49;100.00;101876.25;7362349;19;20014;-71
2022/10/13 04:28:15;;;;;;;31.40;15.38;;;;;;;11.46;100.00;101866.56;7365122;19;20062;-71
2022/10/13 04:30:44;;;;;;;28.58;14.93;;;;;;;11.46;100.00;101869.19;7370735;19;20070;-71
2022/10/13 04:33:20;;;;;;;35.95;16.25;;;;;;;11.47;100.00;101857.81;7362469;19;20105;-71
2022/10/13 04:35:50;;;;;;;27.42;14.10;;;;;;;11.51;100.00;101857.91;7366106;19;20034;-71
2022/10/13 04:38:20;;;;;;;27.38;14.13;;;;;;;11.47;100.00;101847.31;7366071;19;20094;-71
2022/10/13 04:40:50;;;;;;;29.33;15.20;;;;;;;11.45;100.00;101854.25;7365140;19;20011;-74
2022/10/13 04:43:19;;;;;;;31.90;15.77;;;;;;;11.51;100.00;101850.03;7362343;19;20499;-73
2022/10/13 04:45:49;;;;;;;31.00;14.63;;;;;;;11.48;100.00;101854.34;7368972;19;20010;-74
2022/10/13 04:48:21;;;;;;;30.60;15.65;;;;;;;11.48;100.00;101853.47;7368122;19;20446;-73
2022/10/13 04:51:00;;;;;;;26.08;16.40;;;;;;;11.51;100.00;101847.41;7367471;19;20169;-74
2022/10/13 04:53:30;;;;;;;31.10;16.58;;;;;;;11.48;100.00;101849.09;7367037;19;20011;-73
2022/10/13 04:56:03;;;;;;;29.80;15.30;;;;;;;11.47;100.00;101851.69;7365368;19;20010;-73
2022/10/13 04:58:34;;;;;;;28.42;15.00;;;;;;;11.46;100.00;101858.66;7369878;19;20560;-73
2022/10/13 05:01:04;;;;;;;29.70;15.52;;;;;;;11.50;100.00;101858.75;7369815;19;20006;-73
2022/10/13 05:03:36;;;;;;;32.30;15.38;;;;;;;11.54;100.00;101857.97;7356934;19;20018;-73
2022/10/13 05:06:07;;;;;;;29.60;13.85;;;;;;;11.56;100.00;101851.91;7368750;19;20025;-73
2022/10/13 05:08:36;;;;;;;26.65;14.55;;;;;;;11.58;100.00;101850.22;7369041;19;20017;-73
2022/10/13 05:11:06;;;;;;;33.50;14.15;;;;;;;11.56;100.00;101851.91;7368855;19;20048;-73
2022/10/13 05:13:37;;;;;;;32.88;15.73;;;;;;;11.60;100.00;101847.63;7367442;19;20014;-73
2022/10/13 05:16:11;;;;;;;30.05;13.93;;;;;;;11.59;100.00;101841.47;7364330;19;20035;-74
2022/10/13 05:18:44;;;;;;;31.33;15.75;;;;;;;11.58;100.00;101851.94;7368852;19;20010;-73
2022/10/13 05:21:16;;;;;;;30.67;14.85;;;;;;;11.58;100.00;101852.84;7359361;19;20015;-73
2022/10/13 05:23:46;;;;;;;29.67;15.90;;;;;;;11.59;100.00;101848.47;7365635;19;20010;-73
2022/10/13 05:26:18;;;;;;;31.38;14.80;;;;;;;11.60;100.00;101855.50;7364997;19;20019;-73
2022/10/13 05:28:48;;;;;;;29.63;14.68;;;;;;;11.59;100.00;101849.38;7368435;19;20007;-73
2022/10/13 05:31:20;;;;;;;35.55;16.65;;;;;;;11.65;100.00;101835.50;7365300;19;20010;-73
2022/10/13 05:33:53;;;;;;;28.38;14.60;;;;;;;11.63;100.00;101837.19;7364256;19;20019;-73
2022/10/13 05:36:25;;;;;;;35.05;15.73;;;;;;;11.67;100.00;101833.78;7364498;19;21059;-73
2022/10/13 05:38:55;;;;;;;29.98;15.02;;;;;;;11.65;100.00;101830.22;7365816;19;20010;-73
2022/10/13 05:41:26;;;;;;;35.65;16.35;;;;;;;11.67;100.00;101823.28;7362598;19;20007;-73
2022/10/13 05:44:00;;;;;;;30.30;14.35;;;;;;;11.64;100.00;101816.22;7366196;19;20011;-73
2022/10/13 05:46:30;;;;;;;28.88;14.25;;;;;;;11.63;100.00;101805.66;7364596;19;20018;-72
2022/10/13 05:49:02;;;;;;;27.20;13.85;;;;;;;11.60;100.00;101800.34;7363955;19;20010;-73
2022/10/13 05:51:36;;;;;;;28.13;13.75;;;;;;;11.57;100.00;101808.13;7367048;19;20015;-73
2022/10/13 05:54:10;;;;;;;33.20;15.55;;;;;;;11.56;100.00;101798.47;7363567;19;20021;-72
2022/10/13 05:56:43;;;;;;;25.17;12.90;;;;;;;11.55;100.00;101792.34;7368223;19;20018;-73
2022/10/13 05:59:17;;;;;;;26.92;13.63;;;;;;;11.54;100.00;101794.94;7365086;19;20078;-73
2022/10/13 06:01:52;;;;;;;26.67;14.30;;;;;;;11.52;100.00;101807.13;7367630;19;20006;-73
2022/10/13 06:04:31;;;;;;;27.45;13.93;;;;;;;11.50;100.00;101814.09;7364918;19;20017;-73
2022/10/13 06:07:01;;;;;;;27.83;13.10;;;;;;;11.52;100.00;101813.28;7367083;19;20014;-73
2022/10/13 06:09:36;;;;;;;26.42;14.13;;;;;;;11.59;100.00;101820.47;7367521;19;20019;-73
2022/10/13 06:12:06;;;;;;;30.95;14.43;;;;;;;11.60;100.00;101817.00;7367837;19;20019;-72
2022/10/13 06:14:36;;;;;;;29.25;15.02;;;;;;;11.64;100.00;101817.94;7370161;19;20007;-72
2022/10/13 06:17:06;;;;;;;36.05;16.35;;;;;;;11.69;100.00;101826.84;7364977;19;20014;-73
2022/10/13 06:19:38;;;;;;;29.77;13.90;;;;;;;11.69;100.00;101822.47;7363707;19;20037;-73
2022/10/13 06:22:09;;;;;;;30.52;14.25;;;;;;;11.72;100.00;101816.41;7363948;19;20014;-72
2022/10/13 06:24:38;;;;;;;35.85;15.88;;;;;;;11.78;100.00;101814.84;7365789;19;20025;-73
2022/10/13 06:27:09;;;;;;;32.30;17.23;;;;;;;11.79;100.00;101820.97;7366940;19;20035;-73
2022/10/13 06:29:38;;;;;;;30.80;14.75;;;;;;;11.77;100.00;101820.94;7367400;19;20011;-73
2022/10/13 06:32:08;;;;;;;27.50;15.13;;;;;;;11.82;100.00;101828.94;7362062;19;20114;-72
2022/10/13 06:34:41;;;;;;;31.45;16.27;;;;;;;11.91;100.00;101828.28;7366081;19;20010;-72
2022/10/13 06:37:11;;;;;;;28.60;14.45;;;;;;;11.87;100.00;101832.56;7365806;19;20042;-72
2022/10/13 06:39:40;;;;;;;37.17;16.25;;;;;;;11.91;100.00;101828.28;7363600;19;20014;-72
2022/10/13 06:42:13;;;;;;;37.22;16.92;;;;;;;11.91;100.00;101831.78;7365320;19;20289;-72
2022/10/13 06:44:43;;;;;;;32.97;16.25;;;;;;;11.93;100.00;101830.09;7367933;19;20365;-73
2022/10/13 06:47:13;;;;;;;36.83;16.70;;;;;;;11.93;100.00;101827.44;7369326;19;20305;-71
2022/10/13 06:49:46;;;;;;;33.63;17.58;;;;;;;11.96;100.00;101822.28;7369912;19;20011;-72
2022/10/13 06:52:15;;;;;;;40.90;18.35;;;;;;;11.98;100.00;101820.56;7364055;19;20014;-72
2022/10/13 06:54:45;;;;;;;38.47;19.33;;;;;;;12.02;100.00;101816.25;7360481;19;20323;-72
2022/10/13 06:57:15;;;;;;;38.10;18.52;;;;;;;12.02;100.00;101821.53;7366619;19;20007;-72
2022/10/13 06:59:45;;;;;;;36.75;18.80;;;;;;;12.10;100.00;101826.09;7370012;19;20014;-72
2022/10/13 07:02:15;;;;;;;37.85;20.58;;;;;;;12.08;100.00;101826.91;7358558;19;20229;-72
2022/10/13 07:04:48;;;;;;;38.83;21.05;;;;;;;12.09;100.00;101824.31;7355974;19;20010;-73
2022/10/13 07:07:18;;;;;;;41.35;20.35;;;;;;;12.10;100.00;101818.22;7361895;19;20006;-71
2022/10/13 07:09:48;;;;;;;38.13;19.10;;;;;;;12.12;100.00;101818.25;7364500;19;20015;-71
2022/10/13 07:12:17;;;;;;;33.33;17.17;;;;;;;12.11;100.00;101809.47;7363990;19;20007;-71
2022/10/13 07:14:47;;;;;;;35.03;16.58;;;;;;;12.15;100.00;101802.53;7360726;19;20089;-71
2022/10/13 07:17:17;;;;;;;41.75;17.75;;;;;;;12.17;100.00;101794.69;7362744;19;20018;-71
2022/10/13 07:19:50;;;;;;;28.50;15.93;;;;;;;12.18;100.00;101802.59;7359440;19;20014;-71
2022/10/13 07:22:25;;;;;;;36.05;16.70;;;;;;;12.19;100.00;101808.75;7359021;19;20026;-71
2022/10/13 07:24:54;;;;;;;28.75;16.35;;;;;;;12.19;100.00;101804.38;7359820;19;20018;-71
2022/10/13 07:27:24;;;;;;;28.33;15.18;;;;;;;12.20;100.00;101810.53;7331567;19;20055;-71
2022/10/13 07:29:54;;;;;;;26.20;14.02;;;;;;;12.20;100.00;101808.78;7359842;19;20043;-71
2022/10/13 07:32:24;;;;;;;25.38;14.35;;;;;;;12.26;100.00;101808.03;7361207;19;20019;-72
2022/10/13 07:34:56;;;;;;;26.92;13.70;;;;;;;12.26;100.00;101815.94;7358768;19;20034;-72
2022/10/13 07:37:26;;;;;;;29.75;13.32;;;;;;;12.29;100.00;101810.72;7359866;19;20515;-71
2022/10/13 07:39:57;;;;;;;25.00;12.65;;;;;;;12.30;100.00;101808.13;7360713;19;20035;-72
2022/10/13 07:42:27;;;;;;;30.20;13.93;;;;;;;12.37;100.00;101806.53;7355967;19;20018;-73
2022/10/13 07:44:56;;;;;;;26.63;14.23;;;;;;;12.40;100.00;101799.59;7361667;19;20010;-73
2022/10/13 07:47:26;;;;;;;28.25;15.48;;;;;;;12.45;100.00;101812.84;7361140;19;20604;-73
2022/10/13 07:49:58;;;;;;;29.80;15.05;;;;;;;12.48;100.00;101809.38;7363234;19;20040;-72
2022/10/13 07:52:28;;;;;;;30.75;15.75;;;;;;;12.48;100.00;101807.59;7359108;19;20011;-72
2022/10/13 07:54:58;;;;;;;35.42;16.30;;;;;;;12.48;100.00;101807.59;7363396;19;20538;-72
2022/10/13 07:57:28;;;;;;;32.60;15.98;;;;;;;12.48;100.00;101802.34;7356862;19;20018;-72
2022/10/13 07:59:58;;;;;;;35.00;17.92;;;;;;;12.50;100.00;101805.88;7359948;19;20122;-72
2022/10/13 08:02:29;;;;;;;28.58;15.20;;;;;;;12.50;100.00;101807.63;7358085;19;20014;-72
2022/10/13 08:05:01;;;;;;;30.42;17.65;;;;;;;12.54;100.00;101806.84;7360713;19;20055;-72
2022/10/13 08:07:30;;;;;;;31.50;15.65;;;;;;;12.53;100.00;101805.97;7362089;19;20014;-72
2022/10/13 08:10:00;;;;;;;29.20;15.05;;;;;;;12.54;100.00;101802.47;7359345;19;20011;-72
2022/10/13 08:12:30;;;;;;;36.10;17.85;;;;;;;12.55;100.00;101809.50;7357443;19;20020;-72
2022/10/13 08:14:59;;;;;;;32.13;15.38;;;;;;;12.54;100.00;101813.00;7363718;19;20028;-72
2022/10/13 08:17:35;;;;;;;33.58;15.27;;;;;;;12.55;100.00;101820.03;7372408;19;20542;-72
2022/10/13 08:20:09;;;;;;;31.40;15.85;;;;;;;12.58;100.00;101812.19;7373803;19;20015;-72
2022/10/13 08:22:39;;;;;;;24.45;14.80;;;;;;;12.61;100.00;101817.53;7370638;19;20085;-72
2022/10/13 08:25:09;;;;;;;30.00;14.82;;;;;;;12.61;100.00;101808.75;7368723;19;20017;-73
2022/10/13 08:27:39;;;;;;;27.33;15.10;;;;;;;12.60;100.00;101807.84;7364209;19;20016;-73
2022/10/13 08:30:20;;;;;;;28.35;15.43;;;;;;;12.62;100.00;101807.88;7368645;19;20017;-72
2022/10/13 08:32:50;;;;;;;26.75;14.50;;;;;;;12.63;100.00;101791.25;7368877;19;20038;-73
2022/10/13 08:35:23;;;;;;;29.63;15.63;;;;;;;12.63;100.00;101788.59;7367529;19;20011;-73
2022/10/13 08:37:52;;;;;;;25.27;13.43;;;;;;;12.63;100.00;101792.13;7362786;19;20018;-72
2022/10/13 08:40:24;;;;;;;27.60;14.30;;;;;;;12.64;100.00;101786.00;7366645;19;20006;-73
2022/10/13 08:42:54;;;;;;;33.33;15.43;;;;;;;12.63;100.00;101792.13;7367033;19;20372;-73
2022/10/13 08:45:31;;;;;;;29.70;14.98;;;;;;;12.65;100.00;101785.16;7365294;19;20006;-73
2022/10/13 08:48:15;;;;;;;25.65;14.00;;;;;;;12.66;100.00;101794.81;7310443;19;1005535;-71
2022/10/13 08:50:51;;;;;;;26.45;13.50;;;;;;;12.66;100.00;101800.09;7365705;19;20014;-71
2022/10/13 08:53:29;;;;;;;30.73;14.10;;;;;;;12.71;100.00;101808.97;7366323;19;20011;-70
2022/10/13 08:56:02;;;;;;;26.50;13.68;;;;;;;12.77;100.00;101806.44;7365599;19;20014;-69
2022/10/13 08:58:34;;;;;;;31.67;14.77;;;;;;;12.78;100.00;101813.50;7362606;19;20033;-70
2022/10/13 09:01:14;;;;;;;36.28;17.27;;;;;;;12.77;100.00;101800.31;7362420;19;20259;-69
2022/10/13 09:03:55;;;;;;;35.75;18.30;;;;;;;12.80;100.00;101805.63;7364652;19;20072;-69
2022/10/13 09:06:30;;;;;;;38.80;19.15;;;;;;;12.84;100.00;101801.31;7363248;19;20117;-69
2022/10/13 09:09:02;;;;;;;38.53;18.48;;;;;;;12.91;100.00;101803.19;7367264;19;20016;-69
2022/10/13 09:11:33;;;;;;;31.52;18.15;;;;;;;12.95;100.00;101799.75;7363985;19;20011;-70
2022/10/13 09:14:06;;;;;;;36.95;20.02;;;;;;;12.93;100.00;101802.38;7361644;19;20014;-69
2022/10/13 09:16:38;;;;;;;41.08;19.77;;;;;;;12.94;100.00;101793.63;7359871;19;20516;-70
2022/10/13 09:19:26;;;;;;;37.22;18.75;;;;;;;12.94;100.00;101798.88;7363525;19;20026;-69
2022/10/13 09:22:00;;;;;;;41.75;19.38;;;;;;;13.00;100.00;101790.22;7362464;19;20021;-69
2022/10/13 09:24:30;;;;;;;37.47;18.45;;;;;;;13.02;100.00;101796.38;7359290;19;20015;-69
2022/10/13 09:27:13;;;;;;;38.28;19.23;;;;;;;13.00;100.00;101798.09;7361211;19;20475;-69
2022/10/13 09:29:44;;;;;;;31.95;18.13;;;;;;;13.01;100.00;101792.88;7364597;19;20150;-69
2022/10/13 09:32:20;;;;;;;36.70;19.15;;;;;;;13.10;100.00;101797.41;7363945;19;20024;-69
2022/10/13 09:34:51;;;;;;;33.50;18.23;;;;;;;13.12;100.00;101797.44;7356168;19;20006;-69
2022/10/13 09:37:27;;;;;;;34.00;18.70;;;;;;;13.11;100.00;101801.81;7362730;19;20005;-69
2022/10/13 09:40:13;;;;;;;36.42;18.55;;;;;;;13.15;100.00;101797.50;7365494;19;20015;-69
2022/10/13 09:42:44;;;;;;;32.20;17.13;;;;;;;13.21;100.00;101798.53;7370211;19;20069;-69
2022/10/13 09:45:20;;;;;;;29.60;16.65;;;;;;;13.31;100.00;101789.03;7366793;19;20018;-69
2022/10/13 09:47:56;;;;;;;26.92;17.73;;;;;;;13.39;100.00;101788.31;7368871;19;20010;-69
2022/10/13 09:50:28;;;;;;;31.02;16.20;;;;;;;13.48;100.00;101784.06;7369462;19;20007;-69
2022/10/13 09:53:23;;;;;;;28.85;14.98;;;;;;;13.62;100.00;101783.38;7365734;19;20010;-69
2022/10/13 09:56:16;;;;;;;30.77;16.05;;;;;;;13.61;100.00;101778.09;7362558;19;20011;-70
2022/10/13 09:58:52;;;;;;;29.88;16.13;;;;;;;13.63;100.00;101792.19;7362844;19;20025;-70
2022/10/13 10:01:27;;;;;;;27.73;14.55;;;;;;;13.67;100.00;101794.00;7359331;19;20010;-68
2022/10/13 10:03:56;;;;;;;29.65;14.27;;;;;;;13.70;100.00;101788.78;7364774;19;20010;-68
2022/10/13 10:06:26;;;;;;;28.55;14.30;;;;;;;13.65;100.00;101790.44;7362952;19;20011;-68
2022/10/13 10:09:04;;;;;;;29.90;13.52;;;;;;;13.69;100.00;101787.00;7365751;19;20011;-68
2022/10/13 10:11:39;;;;;;;30.15;14.05;;;;;;;13.80;100.00;101782.78;7361146;19;20019;-68
2022/10/13 10:14:18;;;;;;;29.25;14.65;;;;;;;13.88;100.00;101777.63;7364918;19;20021;-69
2022/10/13 10:16:55;;;;;;;29.08;14.63;;;;;;;13.93;100.00;101782.09;7363725;19;20105;-69
2022/10/13 10:19:31;;;;;;;27.52;14.05;;;;;;;13.86;100.00;101779.34;7362479;19;20036;-69
2022/10/13 10:22:09;;;;;;;22.75;13.30;;;;;;;13.88;100.00;101767.97;7363301;19;20014;-70
2022/10/13 10:24:48;;;;;;;21.83;12.63;;;;;;;13.89;100.00;101763.56;7363427;19;20016;-69
2022/10/13 10:27:23;;;;;;;26.17;13.30;;;;;;;13.88;100.00;101762.69;7363275;19;20007;-70
2022/10/13 10:29:58;;;;;;;24.23;12.05;;;;;;;13.88;100.00;101760.06;7366942;19;20019;-70
2022/10/13 10:32:32;;;;;;;25.40;13.65;;;;;;;13.95;100.00;101753.13;7362326;19;20022;-70
2022/10/13 10:35:05;;;;;;;23.48;13.07;;;;;;;13.87;100.00;101763.56;7362972;19;20066;-70
2022/10/13 10:37:49;;;;;;;23.83;12.93;;;;;;;13.85;100.00;101762.66;7363551;19;20015;-70
2022/10/13 10:40:34;;;;;;;22.05;13.00;;;;;;;13.79;100.00;101751.13;7363289;19;20021;-70
2022/10/13 10:43:32;;;;;;;20.90;12.43;;;;;;;13.88;100.00;101754.78;7366594;19;20010;-70
2022/10/13 10:46:02;;;;;;;23.13;11.85;;;;;;;13.99;100.00;101747.00;7362187;19;20017;-70
2022/10/13 10:48:37;;;;;;;22.85;12.48;;;;;;;14.11;100.00;101744.53;7365564;19;20474;-71
2022/10/13 10:51:09;;;;;;;22.58;12.45;;;;;;;14.20;100.00;101749.06;7364230;19;20537;-70
2022/10/13 10:53:47;;;;;;;23.98;11.90;;;;;;;14.26;100.00;101750.03;7361946;19;20045;-71
2022/10/13 10:56:26;;;;;;;23.08;12.18;;;;;;;14.29;100.00;101749.16;7367581;19;20021;-70
2022/10/13 10:59:07;;;;;;;24.75;11.93;;;;;;;14.29;100.00;101746.53;7364705;19;20010;-71
2022/10/13 11:01:44;;;;;;;26.17;12.75;;;;;;;14.22;100.00;101736.78;7366653;19;20088;-71
2022/10/13 11:04:38;;;;;;;20.35;10.98;;;;;;;14.17;100.00;101747.25;7365690;19;20399;-71
2022/10/13 11:07:12;;;;;;;;;;;;;;;14.09;100.00;101738.34;7364523;19;20014;-68
2022/10/13 11:10:03;;;;;;;20.90;10.40;;;;;;;14.09;100.00;101746.28;7363662;19;19974;-70
2022/10/13 11:13:11;;;;;;;18.00;11.15;;;;;;;14.14;100.00;101744.59;7362744;19;20011;-70
2022/10/13 11:15:45;;;;;;;21.05;10.00;;;;;;;14.18;100.00;101737.59;7362128;19;20021;-71
2022/10/13 11:18:45;;;;;;;21.88;10.45;;;;;;;14.17;100.00;101735.81;7362060;19;20062;-71
2022/10/13 11:21:15;;;;;;;28.98;11.35;;;;;;;14.18;100.00;101725.28;7360188;19;20074;-71
2022/10/13 11:23:49;;;;;;;22.17;11.18;;;;;;;14.14;100.00;101728.75;7359887;19;20006;-71
2022/10/13 11:26:44;;;;;;;21.77;11.30;;;;;;;14.11;100.00;101726.06;7364292;19;20010;-71
2022/10/13 11:29:56;;;;;;;23.45;10.90;;;;;;;14.13;100.00;101723.47;7369825;19;20115;-71